Flight Track Log - Related Links

Times and Time Zones

All times are in EDT time to prevent confusion due to time zone crossing. See the CSH852 flight status page for this flight to view local times or setup timezone preferences in your user account.

Time Position Orientation Groundspeed Altitude Reporting Facility
EDT Latitude Longitude Course Direction KTS MPH feet Rate Location/Type
Tue 12:12:00 AM 25.9345 121.5227 358° North  Level Estimated
Tue 12:13:00 AM 26.0065 121.5203 358° North  Level Estimated
Tue 12:14:00 AM 26.0786 121.5178 358° North  Level Estimated
Tue 12:15:00 AM 26.1507 121.5154 358° North  Level Estimated
Tue 12:16:00 AM 26.2228 121.5129 358° North  Level Estimated
Tue 12:17:00 AM 26.2949 121.5105 358° North  Level Estimated
Tue 12:18:00 AM 26.3670 121.5081 358° North  Level Estimated
Tue 12:19:00 AM 26.4391 121.5056 358° North  Level Estimated
Tue 12:20:00 AM 26.5112 121.5032 358° North  Level Estimated
Tue 12:21:00 AM 26.5832 121.5007 358° North  Level Estimated
Tue 12:22:00 AM 26.6553 121.4982 358° North  Level Estimated
Tue 12:23:00 AM 26.7274 121.4958 358° North  Level Estimated
Tue 12:24:00 AM 26.7995 121.4933 358° North  Level Estimated
Tue 12:25:00 AM 26.8716 121.4908 358° North  Level Estimated
Tue 12:26:00 AM 26.9437 121.4884 358° North  Level Estimated
Tue 12:27:00 AM 27.0157 121.4859 358° North  Level Estimated
Tue 12:28:00 AM 27.0878 121.4834 358° North  Level Estimated
Tue 12:29:00 AM 27.1599 121.4809 358° North  Level Estimated
Tue 12:30:00 AM 27.2320 121.4784 358° North  Level Estimated
Tue 12:31:00 AM 27.3041 121.4760 358° North  Level Estimated
Tue 12:32:00 AM 27.3762 121.4735 358° North  Level Estimated
Tue 12:33:00 AM 27.4482 121.4710 358° North  Level Estimated
Tue 12:34:00 AM 27.5203 121.4685 358° North  Level Estimated
Tue 12:35:00 AM 27.5924 121.4660 358° North  Level Estimated
Tue 12:36:00 AM 27.6645 121.4635 358° North  Level Estimated
Tue 12:37:00 AM 27.7366 121.4610 358° North  Level Estimated
Tue 12:38:00 AM 27.8087 121.4584 358° North  Level Estimated
Tue 12:39:00 AM 27.8808 121.4559 358° North  Level Estimated
Tue 12:40:00 AM 27.9528 121.4534 358° North  Level Estimated
Tue 12:41:00 AM 28.0249 121.4509 358° North  Level Estimated
Tue 12:42:00 AM 28.0970 121.4484 358° North  Level Estimated
Tue 12:43:00 AM 28.1691 121.4458 358° North  Level Estimated
Tue 12:44:00 AM 28.2412 121.4433 358° North  Level Estimated
Tue 12:45:00 AM 28.3133 121.4408 358° North  Level Estimated
Tue 12:46:00 AM 28.3853 121.4382 358° North  Level Estimated
Tue 12:47:00 AM 28.4574 121.4357 358° North  Level Estimated
Tue 12:48:00 AM 28.5295 121.4331 358° North  Level Estimated
Tue 12:49:00 AM 28.6016 121.4306 358° North  Level Estimated
Tue 12:50:00 AM 28.6737 121.4280 358° North  Level Estimated
Tue 12:51:00 AM 28.7458 121.4255 358° North  Level Estimated
Tue 12:52:00 AM 28.8178 121.4229 358° North  Level Estimated
Tue 12:53:00 AM 28.8899 121.4204 358° North  Level Estimated
Tue 12:54:00 AM 28.9620 121.4178 358° North  Level Estimated
Tue 12:55:00 AM 29.0341 121.4152 358° North  Level Estimated
Tue 12:56:00 AM 29.1062 121.4127 358° North  Level Estimated
Tue 12:57:00 AM 29.1783 121.4101 358° North  Level Estimated
Tue 12:58:00 AM 29.2503 121.4075 358° North  Level Estimated
Tue 12:59:00 AM 29.3224 121.4049 358° North  Level Estimated
Tue 01:00:00 AM 29.3945 121.4023 358° North  Level Estimated
Tue 01:01:00 AM 29.4666 121.3997 358° North  Level Estimated
Tue 01:02:00 AM 29.5387 121.3971 358° North  Level Estimated
Tue 01:03:00 AM 29.6108 121.3945 358° North  Level Estimated
Tue 01:04:00 AM 29.6828 121.3919 358° North  Level Estimated
Tue 01:05:00 AM 29.7549 121.3893 358° North  Level Estimated
Tue 01:06:00 AM 29.8270 121.3867 358° North  Level Estimated
Tue 01:07:00 AM 29.8991 121.3841 358° North  Level Estimated
Tue 01:08:00 AM 29.9712 121.3815 358° North  Level Estimated
Tue 01:09:00 AM 30.0432 121.3789 358° North  Level Estimated
Tue 01:10:00 AM 30.1153 121.3762 358° North  Level Estimated
Tue 01:11:00 AM 30.1874 121.3736 358° North  Level Estimated
Tue 01:12:00 AM 30.2595 121.3710 358° North  Level Estimated
Tue 01:13:00 AM 30.3316 121.3683 358° North  Level Estimated
Tue 01:14:00 AM 30.4037 121.3657 358° North  Level Estimated
Tue 01:15:00 AM 30.4757 121.3630 358° North  Level Estimated
Tue 01:16:00 AM 30.5478 121.3604 358° North  Level Estimated
Tue 01:17:00 AM 30.6199 121.3577 358° North  Level Estimated
Tue 01:18:00 AM 30.6920 121.3551 358° North  Level Estimated
Tue 01:19:00 AM 30.7641 121.3524 358° North  Level Estimated
Tue 01:20:00 AM 30.8361 121.3497 358° North  Level Estimated
Tue 01:21:00 AM 30.9082 121.3471 358° North  Level Estimated
Tue 01:22:00 AM 30.9803 121.3444 358° North  Level Estimated
Tue 01:23:00 AM 31.0524 121.3417 358° North  Level Estimated
Tue 01:24:00 AM 31.1245 121.3391 358° North  Level Estimated
Tue 01:25:00 AM 31.1966 121.3364 358° North  Level Estimated
Tue 01:26:00 AM 31.1979 121.3363 358° North  Level Estimated

Login

Don't have an account? Register now (free) for customized features, flight alerts, and more!